createdAt,value
2018-10-11T00:00:46.169Z,99.90
2018-10-11T00:03:18.631Z,99.90
2018-10-11T00:05:50.997Z,99.90
2018-10-11T00:08:23.406Z,99.90
2018-10-11T00:10:55.757Z,99.90
2018-10-11T00:13:28.569Z,99.90
2018-10-11T00:16:01.056Z,99.90
2018-10-11T00:18:33.470Z,99.90
2018-10-11T00:21:05.989Z,99.90
2018-10-11T00:23:38.366Z,99.90
2018-10-11T00:26:10.780Z,99.90
2018-10-11T00:28:43.169Z,99.90
2018-10-11T00:31:15.546Z,99.90
2018-10-11T00:33:48.036Z,99.90
2018-10-11T00:36:20.381Z,99.90
2018-10-11T00:38:52.796Z,99.90
2018-10-11T00:41:25.231Z,99.90
2018-10-11T00:43:57.824Z,99.90
2018-10-11T00:46:30.209Z,99.90
2018-10-11T00:49:02.601Z,99.90
2018-10-11T00:51:34.947Z,99.90
2018-10-11T00:54:07.636Z,99.90
2018-10-11T00:56:40.489Z,99.90
2018-10-11T00:59:12.891Z,99.90
2018-10-11T01:01:46.303Z,99.90
2018-10-11T01:04:18.965Z,99.90
2018-10-11T01:06:51.480Z,99.90
2018-10-11T01:09:23.880Z,99.90
2018-10-11T01:11:56.229Z,99.90
2018-10-11T01:14:28.627Z,99.90
2018-10-11T01:17:01.006Z,99.90
2018-10-11T01:19:33.635Z,99.90
2018-10-11T01:22:06.294Z,99.90
2018-10-11T01:24:39.098Z,99.90
2018-10-11T01:27:11.521Z,99.90
2018-10-11T01:29:43.951Z,99.90
2018-10-11T01:32:16.386Z,99.90
2018-10-11T01:34:48.775Z,99.90
2018-10-11T01:37:21.195Z,99.90
2018-10-11T01:39:53.561Z,99.90
2018-10-11T01:42:26.039Z,99.90
2018-10-11T01:44:58.474Z,99.90
2018-10-11T01:47:31.293Z,99.90
2018-10-11T01:50:04.020Z,99.90
2018-10-11T01:52:36.413Z,99.90
2018-10-11T01:55:08.887Z,99.90
2018-10-11T01:57:41.275Z,99.90
2018-10-11T02:00:13.690Z,99.90
2018-10-11T02:02:46.084Z,99.90
2018-10-11T02:05:18.473Z,99.90
2018-10-11T02:07:50.916Z,99.90
2018-10-11T02:10:23.866Z,99.90
2018-10-11T02:12:57.266Z,99.90
2018-10-11T02:15:29.814Z,99.90
2018-10-11T02:18:02.282Z,99.90
2018-10-11T02:20:34.999Z,99.90
2018-10-11T02:23:07.449Z,99.90
2018-10-11T02:25:40.053Z,99.90
2018-10-11T02:28:12.470Z,99.90
2018-10-11T02:30:44.843Z,99.90
2018-10-11T02:33:17.281Z,99.90
2018-10-11T02:35:49.682Z,99.90
2018-10-11T02:38:22.098Z,99.90
2018-10-11T02:40:54.524Z,99.90
2018-10-11T02:43:27.013Z,99.90
2018-10-11T02:45:59.416Z,99.90
2018-10-11T02:48:31.815Z,99.90
2018-10-11T02:51:04.197Z,99.90
2018-10-11T02:53:36.660Z,99.90
2018-10-11T02:56:09.068Z,99.90
2018-10-11T02:58:52.952Z,99.90
2018-10-11T03:01:25.387Z,99.90
2018-10-11T03:04:05.875Z,99.90
2018-10-11T03:06:38.764Z,99.90
2018-10-11T03:09:11.223Z,99.90
2018-10-11T03:11:43.680Z,99.90
2018-10-11T03:14:16.088Z,99.90
2018-10-11T03:16:48.482Z,99.90
2018-10-11T03:19:21.229Z,99.90
2018-10-11T03:21:53.620Z,99.90
2018-10-11T03:24:26.064Z,99.90
2018-10-11T03:26:59.810Z,99.90
2018-10-11T03:29:32.213Z,99.90
2018-10-11T03:32:04.652Z,99.90
2018-10-11T03:34:37.190Z,99.90
2018-10-11T03:37:10.714Z,99.90
2018-10-11T03:39:43.105Z,99.90
2018-10-11T03:42:15.551Z,99.90
2018-10-11T03:44:48.092Z,99.90
2018-10-11T03:47:20.479Z,99.90
2018-10-11T03:49:52.886Z,99.90
2018-10-11T03:52:25.337Z,99.90
2018-10-11T03:54:57.719Z,99.90
2018-10-11T03:57:30.178Z,99.90
2018-10-11T04:00:02.645Z,99.90
2018-10-11T04:02:35.080Z,99.90
2018-10-11T04:05:07.666Z,99.90
2018-10-11T04:07:40.193Z,99.90
2018-10-11T04:10:12.572Z,99.90
2018-10-11T04:12:45.043Z,99.90
2018-10-11T04:15:17.699Z,99.90
2018-10-11T04:17:50.104Z,99.90
2018-10-11T04:20:22.527Z,99.90
2018-10-11T04:22:54.971Z,99.90
2018-10-11T04:25:28.366Z,99.90
2018-10-11T04:28:00.979Z,99.90
2018-10-11T04:30:33.386Z,99.90
2018-10-11T04:33:05.855Z,99.90
2018-10-11T04:35:38.295Z,99.90
2018-10-11T04:38:10.913Z,99.90
2018-10-11T04:40:43.336Z,99.90
2018-10-11T04:43:15.954Z,99.90
2018-10-11T04:45:48.283Z,99.90
2018-10-11T04:48:20.674Z,99.90
2018-10-11T04:50:53.129Z,99.90
2018-10-11T04:53:25.849Z,99.90
2018-10-11T04:55:58.232Z,99.90
2018-10-11T04:58:30.697Z,99.90
2018-10-11T05:01:03.550Z,99.90
2018-10-11T05:03:36.308Z,99.90
2018-10-11T05:06:08.801Z,99.90
2018-10-11T05:08:41.219Z,99.90
2018-10-11T05:11:13.679Z,99.90
2018-10-11T05:13:48.739Z,99.90
2018-10-11T05:16:21.310Z,99.90
2018-10-11T05:18:57.505Z,99.90
2018-10-11T05:21:30.057Z,99.90
2018-10-11T05:24:02.596Z,99.90
2018-10-11T05:26:35.214Z,99.90
2018-10-11T05:29:08.035Z,99.90
2018-10-11T05:31:40.491Z,99.90
2018-10-11T05:34:12.979Z,99.90
2018-10-11T05:36:45.459Z,99.90
2018-10-11T05:39:17.903Z,99.90
2018-10-11T05:41:50.546Z,99.90
2018-10-11T05:44:23.137Z,99.90
2018-10-11T05:46:55.765Z,99.90
2018-10-11T05:49:28.273Z,99.90
2018-10-11T05:52:01.113Z,99.90
2018-10-11T05:54:33.572Z,99.90
2018-10-11T05:57:06.091Z,99.90
2018-10-11T05:59:38.606Z,99.90
2018-10-11T06:02:11.371Z,99.90
2018-10-11T06:04:43.819Z,99.90
2018-10-11T06:07:18.438Z,99.90
2018-10-11T06:09:50.871Z,99.90
2018-10-11T06:12:23.424Z,99.90
2018-10-11T06:14:57.439Z,99.90
2018-10-11T06:17:30.029Z,99.90
2018-10-11T06:20:02.578Z,99.90
2018-10-11T06:22:35.041Z,99.90
2018-10-11T06:25:07.617Z,99.90
2018-10-11T06:27:41.048Z,99.90
2018-10-11T06:30:14.234Z,99.90
2018-10-11T06:32:46.774Z,99.90
2018-10-11T06:35:19.297Z,99.90
2018-10-11T06:37:52.242Z,99.90
2018-10-11T06:40:24.874Z,99.90
2018-10-11T06:42:57.487Z,99.90
2018-10-11T06:45:30.139Z,99.90
2018-10-11T06:48:05.931Z,99.90
2018-10-11T06:50:39.315Z,99.90
2018-10-11T06:53:11.826Z,99.90
2018-10-11T06:55:44.298Z,99.90
2018-10-11T06:58:16.715Z,99.90
2018-10-11T07:00:49.222Z,99.90
2018-10-11T07:03:21.609Z,99.90
2018-10-11T07:05:54.075Z,99.90
2018-10-11T07:08:26.563Z,99.90
2018-10-11T07:10:58.996Z,99.90
2018-10-11T07:13:31.527Z,99.90
2018-10-11T07:16:04.124Z,99.90
2018-10-11T07:18:36.620Z,99.90
2018-10-11T07:21:09.047Z,99.90
2018-10-11T07:23:41.464Z,99.90
2018-10-11T07:26:13.889Z,99.90
2018-10-11T07:28:46.320Z,99.90
2018-10-11T07:31:18.854Z,99.90
2018-10-11T07:33:51.311Z,99.90
2018-10-11T07:36:23.769Z,99.90
2018-10-11T07:38:56.175Z,99.90
2018-10-11T07:41:28.706Z,99.90
2018-10-11T07:44:01.148Z,99.90
2018-10-11T07:46:33.648Z,99.90
2018-10-11T07:49:07.745Z,99.90
2018-10-11T07:51:40.272Z,99.90
2018-10-11T07:54:12.688Z,99.90
2018-10-11T07:56:45.167Z,99.90
2018-10-11T07:59:17.636Z,99.90
2018-10-11T08:01:50.114Z,99.90
2018-10-11T08:04:22.539Z,99.90
2018-10-11T08:06:55.060Z,99.90
2018-10-11T08:09:27.604Z,99.90
2018-10-11T08:12:00.333Z,99.80
2018-10-11T08:14:33.299Z,99.70
2018-10-11T08:17:06.702Z,99.30
2018-10-11T08:19:39.212Z,99.10
2018-10-11T08:22:11.719Z,98.90
2018-10-11T08:24:44.291Z,98.60
2018-10-11T08:27:16.783Z,98.40
2018-10-11T08:29:49.364Z,98.30
2018-10-11T08:32:21.973Z,97.80
2018-10-11T08:34:54.386Z,97.90
2018-10-11T08:37:26.849Z,97.70
2018-10-11T08:39:59.550Z,97.70
2018-10-11T08:42:32.114Z,97.60
2018-10-11T08:45:05.032Z,99.90
2018-10-11T08:47:37.609Z,97.60
2018-10-11T08:50:10.559Z,97.60
2018-10-11T08:52:43.851Z,99.60
2018-10-11T08:55:17.035Z,97.40
2018-10-11T08:57:50.483Z,97.60
2018-10-11T09:00:22.980Z,97.50
2018-10-11T09:02:55.467Z,97.50
2018-10-11T09:05:27.952Z,97.30
2018-10-11T09:08:00.439Z,97.50
2018-10-11T09:10:38.345Z,97.50
2018-10-11T09:13:05.995Z,97.60
2018-10-11T09:20:43.368Z,98.10
2018-10-11T09:23:15.898Z,97.40
2018-10-11T09:25:48.449Z,97.60
2018-10-11T09:28:20.916Z,97.40
2018-10-11T09:30:53.662Z,97.40
2018-10-11T09:33:26.135Z,97.10
2018-10-11T09:35:58.616Z,97.20
2018-10-11T09:38:31.267Z,99.90
2018-10-11T09:41:03.746Z,97.70
2018-10-11T09:43:36.388Z,97.10
2018-10-11T09:46:08.963Z,96.90
2018-10-11T09:48:41.482Z,96.60
2018-10-11T09:51:14.016Z,96.40
2018-10-11T09:53:46.524Z,96.30
2018-10-11T09:56:18.949Z,95.90
2018-10-11T09:58:51.326Z,95.70
2018-10-11T10:01:57.105Z,95.90
2018-10-11T10:04:29.570Z,95.60
2018-10-11T10:07:02.017Z,95.60
2018-10-11T10:09:34.415Z,95.20
2018-10-11T10:12:07.772Z,94.80
2018-10-11T10:14:40.986Z,94.70
2018-10-11T10:17:13.434Z,94.60
2018-10-11T10:19:46.122Z,94.70
2018-10-11T10:22:18.637Z,94.50
2018-10-11T10:24:51.881Z,94.20
2018-10-11T10:27:24.358Z,94.00
2018-10-11T10:29:57.293Z,94.00
2018-10-11T10:32:29.918Z,94.40
2018-10-11T10:35:02.421Z,93.90
2018-10-11T10:37:36.111Z,93.60
2018-10-11T10:40:08.636Z,93.50
2018-10-11T10:42:41.107Z,93.30
2018-10-11T10:45:13.591Z,93.20
2018-10-11T10:47:46.093Z,93.00
2018-10-11T10:50:18.559Z,93.00
2018-10-11T10:52:52.264Z,93.00
2018-10-11T10:55:24.763Z,93.00
2018-10-11T10:57:57.263Z,93.00
2018-10-11T11:00:29.742Z,93.20
2018-10-11T11:03:02.260Z,93.30
2018-10-11T11:05:34.761Z,93.30
2018-10-11T11:08:07.800Z,93.30
2018-10-11T11:10:40.283Z,93.10
2018-10-11T11:13:14.567Z,92.80
2018-10-11T11:15:46.998Z,92.80
2018-10-11T11:18:19.495Z,97.10
2018-10-11T11:20:52.132Z,95.80
2018-10-11T11:23:25.007Z,95.20
2018-10-11T11:25:57.543Z,95.30
2018-10-11T11:28:30.088Z,95.30
2018-10-11T11:33:35.563Z,96.40
2018-10-11T11:38:41.439Z,93.40
2018-10-11T11:41:13.972Z,96.50
2018-10-11T11:43:46.759Z,96.20
2018-10-11T11:46:19.255Z,96.50
2018-10-11T11:48:51.789Z,97.00
2018-10-11T11:51:24.306Z,92.80
2018-10-11T11:53:58.579Z,92.20
2018-10-11T11:56:31.023Z,91.90
2018-10-11T11:59:03.491Z,92.40
2018-10-11T12:01:35.978Z,91.90
2018-10-11T12:06:40.920Z,91.50
2018-10-11T12:09:14.168Z,91.60
2018-10-11T12:11:46.730Z,91.80
2018-10-11T12:14:19.264Z,91.50
2018-10-11T12:16:51.756Z,91.70
2018-10-11T12:19:24.263Z,91.50
2018-10-11T12:21:56.884Z,91.30
2018-10-11T12:24:29.353Z,91.40
2018-10-11T12:27:01.810Z,91.30
2018-10-11T12:29:34.258Z,91.40
2018-10-11T12:32:06.877Z,91.40
2018-10-11T12:34:39.586Z,91.40
2018-10-11T12:37:12.130Z,91.20
2018-10-11T12:39:44.608Z,91.50
2018-10-11T12:42:17.094Z,91.40
2018-10-11T12:44:49.722Z,91.50
2018-10-11T12:47:28.050Z,91.80
2018-10-11T12:50:00.536Z,91.60
2018-10-11T12:52:33.095Z,91.50
2018-10-11T12:55:06.148Z,91.30
2018-10-11T12:57:38.962Z,91.20
2018-10-11T13:02:45.128Z,90.60
2018-10-11T13:05:17.623Z,90.90
2018-10-11T13:07:50.089Z,90.80
2018-10-11T13:10:22.809Z,90.60
2018-10-11T13:12:57.421Z,90.60
2018-10-11T13:15:29.343Z,90.40
2018-10-11T13:18:01.880Z,90.40
2018-10-11T13:20:34.418Z,90.50
2018-10-11T13:23:10.794Z,90.50
2018-10-11T13:25:40.120Z,90.40
2018-10-11T13:28:12.681Z,90.50
2018-10-11T13:30:45.187Z,90.60
2018-10-11T13:33:17.631Z,90.60
2018-10-11T13:35:50.228Z,90.50
2018-10-11T13:38:22.807Z,90.60
2018-10-11T13:40:57.868Z,90.20
2018-10-11T13:43:27.828Z,90.20
2018-10-11T13:46:02.540Z,90.20
2018-10-11T13:48:32.808Z,90.00
2018-10-11T13:51:05.584Z,90.00
2018-10-11T13:53:38.164Z,89.80
2018-10-11T13:56:11.369Z,89.50
2018-10-11T13:58:43.967Z,89.80
2018-10-11T14:01:16.810Z,89.80
2018-10-11T14:03:49.307Z,90.30
2018-10-11T14:06:21.775Z,89.30
2018-10-11T14:08:54.487Z,89.20
2018-10-11T14:11:27.056Z,88.90
2018-10-11T14:14:00.076Z,88.90
2018-10-11T14:16:32.555Z,88.50
2018-10-11T14:19:05.138Z,88.40
2018-10-11T14:21:37.598Z,88.00
2018-10-11T14:24:10.272Z,88.00
2018-10-11T14:26:42.670Z,88.10
2018-10-11T14:29:15.157Z,88.50
2018-10-11T14:31:47.727Z,88.20
2018-10-11T14:34:20.261Z,88.70
2018-10-11T14:36:53.120Z,88.10
2018-10-11T14:39:25.480Z,87.60
2018-10-11T14:41:58.124Z,87.80
2018-10-11T14:44:30.611Z,87.20
2018-10-11T14:47:03.149Z,87.30
2018-10-11T14:49:36.052Z,86.90
2018-10-11T14:52:08.551Z,87.20
2018-10-11T14:54:41.927Z,87.50
2018-10-11T14:57:14.848Z,87.60
2018-10-11T14:59:47.279Z,88.10
2018-10-11T15:02:19.787Z,87.80
2018-10-11T15:04:52.494Z,87.50
2018-10-11T15:07:25.012Z,88.20
2018-10-11T15:09:58.066Z,88.50
2018-10-11T15:12:30.681Z,88.50
2018-10-11T15:15:03.206Z,89.30
2018-10-11T15:17:35.869Z,89.30
2018-10-11T15:20:08.608Z,89.40
2018-10-11T15:22:41.116Z,90.00
2018-10-11T15:25:13.558Z,90.00
2018-10-11T15:27:46.323Z,90.20
2018-10-11T15:30:19.187Z,90.10
2018-10-11T15:32:51.626Z,90.20
2018-10-11T15:35:24.064Z,90.30
2018-10-11T15:37:56.606Z,90.10
2018-10-11T15:40:29.090Z,90.30
2018-10-11T15:43:01.582Z,89.80
2018-10-11T15:45:34.101Z,89.70
2018-10-11T15:48:06.593Z,89.40
2018-10-11T15:50:39.119Z,89.90
2018-10-11T15:53:11.559Z,90.10
2018-10-11T15:55:44.185Z,90.40
2018-10-11T15:58:16.848Z,90.80
2018-10-11T16:00:49.714Z,91.20
2018-10-11T16:03:22.310Z,91.00
2018-10-11T16:05:54.983Z,91.20
2018-10-11T16:08:27.854Z,91.50
2018-10-11T16:11:00.417Z,91.40
2018-10-11T16:13:33.196Z,91.50
2018-10-11T16:16:05.665Z,91.70
2018-10-11T16:18:38.402Z,91.80
2018-10-11T16:21:10.839Z,91.90
2018-10-11T16:23:43.464Z,92.20
2018-10-11T16:26:15.886Z,92.10
2018-10-11T16:28:48.511Z,92.10
2018-10-11T16:31:21.043Z,92.20
2018-10-11T16:33:53.538Z,92.30
2018-10-11T16:36:26.148Z,92.40
2018-10-11T16:38:58.733Z,92.50
2018-10-11T16:41:31.270Z,92.60
2018-10-11T16:46:36.555Z,92.50
2018-10-11T16:49:09.231Z,92.80
2018-10-11T16:51:41.714Z,92.90
2018-10-11T16:54:14.153Z,93.10
2018-10-11T16:56:46.661Z,93.40
2018-10-11T16:59:19.452Z,93.50
2018-10-11T17:01:51.937Z,93.60
2018-10-11T17:04:24.530Z,93.70
2018-10-11T17:06:57.032Z,93.90
2018-10-11T17:09:29.687Z,93.80
2018-10-11T17:12:02.286Z,94.00
2018-10-11T17:14:35.057Z,94.20
2018-10-11T17:17:07.561Z,94.40
2018-10-11T17:19:40.120Z,94.50
2018-10-11T17:22:12.813Z,94.60
2018-10-11T17:24:45.209Z,94.70
2018-10-11T17:27:17.859Z,95.00
2018-10-11T17:29:50.400Z,95.10
2018-10-11T17:32:23.064Z,95.40
2018-10-11T17:34:55.534Z,95.60
2018-10-11T17:37:27.957Z,95.80
2018-10-11T17:40:00.487Z,96.10
2018-10-11T17:42:32.991Z,96.10
2018-10-11T17:45:06.263Z,96.40
2018-10-11T17:47:38.708Z,96.30
2018-10-11T17:50:11.219Z,96.60
2018-10-11T17:52:43.679Z,96.60
2018-10-11T17:55:16.308Z,96.80
2018-10-11T17:57:48.842Z,96.90
2018-10-11T18:00:21.485Z,96.90
2018-10-11T18:02:53.939Z,97.10
2018-10-11T18:05:26.463Z,97.00
2018-10-11T18:07:59.223Z,96.90
2018-10-11T18:10:31.778Z,96.80
2018-10-11T18:13:04.257Z,96.80
2018-10-11T18:15:36.756Z,96.80
2018-10-11T18:18:09.274Z,96.90
2018-10-11T18:20:41.904Z,96.90
2018-10-11T18:23:15.488Z,97.00
2018-10-11T18:25:47.956Z,97.10
2018-10-11T18:28:20.436Z,97.10
2018-10-11T18:30:52.910Z,97.30
2018-10-11T18:33:25.420Z,97.40
2018-10-11T18:35:58.017Z,97.50
2018-10-11T18:38:30.453Z,97.60
2018-10-11T18:41:03.037Z,97.80
2018-10-11T18:43:35.557Z,97.80
2018-10-11T18:46:08.154Z,97.80
2018-10-11T18:48:40.613Z,98.00
2018-10-11T18:51:13.074Z,98.20
2018-10-11T18:53:45.573Z,98.30
2018-10-11T18:56:18.092Z,98.20
2018-10-11T18:58:50.555Z,98.20
2018-10-11T19:01:23.118Z,97.90
2018-10-11T19:03:55.568Z,97.90
2018-10-11T19:06:28.116Z,97.90
2018-10-11T19:09:00.594Z,97.90
2018-10-11T19:11:33.175Z,97.60
2018-10-11T19:14:05.634Z,97.60
2018-10-11T19:16:38.155Z,97.60
2018-10-11T19:19:10.680Z,97.50
2018-10-11T19:21:43.392Z,97.50
2018-10-11T19:24:15.945Z,97.50
2018-10-11T19:26:48.790Z,97.40
2018-10-11T19:29:21.270Z,97.70
2018-10-11T19:31:53.752Z,97.80
2018-10-11T19:34:26.459Z,97.60
2018-10-11T19:36:58.957Z,97.60
2018-10-11T19:39:31.507Z,97.50
2018-10-11T19:42:05.225Z,97.70
2018-10-11T19:44:37.711Z,97.80
2018-10-11T19:47:10.177Z,97.80
2018-10-11T19:49:42.727Z,97.80
2018-10-11T19:52:15.155Z,97.90
2018-10-11T19:54:48.300Z,98.00
2018-10-11T19:57:20.781Z,98.00
2018-10-11T19:59:53.533Z,97.90
2018-10-11T20:02:26.426Z,97.90
2018-10-11T20:04:58.952Z,98.00
2018-10-11T20:07:31.736Z,98.00
2018-10-11T20:10:04.335Z,98.10
2018-10-11T20:12:37.179Z,98.00
2018-10-11T20:15:09.699Z,98.10
2018-10-11T20:17:42.280Z,98.10
2018-10-11T20:20:14.919Z,98.10
2018-10-11T20:22:47.744Z,98.00
2018-10-11T20:25:20.664Z,97.90
2018-10-11T20:27:53.083Z,97.90
2018-10-11T20:30:25.643Z,97.80
2018-10-11T20:32:58.623Z,97.60
2018-10-11T20:35:31.257Z,97.60
2018-10-11T20:38:03.753Z,97.50
2018-10-11T20:40:36.225Z,97.60
2018-10-11T20:43:08.920Z,97.60
2018-10-11T20:45:41.458Z,97.60
2018-10-11T20:48:13.886Z,97.50
2018-10-11T20:50:46.689Z,97.70
2018-10-11T20:53:19.209Z,97.50
2018-10-11T20:55:51.951Z,97.50
2018-10-11T20:58:24.379Z,97.80
2018-10-11T21:00:56.833Z,97.50
2018-10-11T21:03:29.351Z,97.60
2018-10-11T21:06:01.832Z,97.50
2018-10-11T21:08:34.344Z,97.50
2018-10-11T21:11:06.810Z,97.70
2018-10-11T21:13:39.295Z,97.80
2018-10-11T21:16:11.710Z,97.70
2018-10-11T21:18:44.159Z,97.80
2018-10-11T21:21:16.629Z,97.80
2018-10-11T21:23:49.171Z,97.90
2018-10-11T21:26:21.623Z,97.90
2018-10-11T21:28:54.051Z,98.10
2018-10-11T21:31:26.522Z,98.30
2018-10-11T21:33:58.992Z,98.20
2018-10-11T21:36:31.452Z,97.80
2018-10-11T21:39:07.038Z,97.80
2018-10-11T21:41:40.047Z,97.70
2018-10-11T21:44:14.152Z,97.70
2018-10-11T21:46:46.610Z,97.40
2018-10-11T21:49:19.071Z,97.70
2018-10-11T21:51:51.524Z,97.40
2018-10-11T21:54:24.113Z,97.30
2018-10-11T21:56:56.741Z,97.30
2018-10-11T21:59:29.290Z,97.30
2018-10-11T22:02:01.737Z,97.30
2018-10-11T22:04:34.786Z,97.30
2018-10-11T22:07:07.537Z,97.30
2018-10-11T22:09:40.747Z,97.30
2018-10-11T22:12:13.168Z,97.30
2018-10-11T22:14:45.785Z,97.10
2018-10-11T22:17:18.203Z,97.30
2018-10-11T22:19:50.631Z,97.00
2018-10-11T22:22:23.127Z,97.00
2018-10-11T22:24:55.678Z,97.30
2018-10-11T22:27:28.506Z,97.00
2018-10-11T22:30:00.978Z,97.10
2018-10-11T22:32:33.412Z,97.10
2018-10-11T22:35:05.889Z,97.10
2018-10-11T22:37:38.308Z,97.10
2018-10-11T22:40:12.948Z,97.10
2018-10-11T22:43:00.795Z,97.00
2018-10-11T22:45:33.363Z,97.20
2018-10-11T22:48:05.907Z,97.20
2018-10-11T22:50:38.565Z,97.20
2018-10-11T22:53:11.025Z,97.40
2018-10-11T22:55:43.516Z,97.40
2018-10-11T22:58:15.999Z,97.50
2018-10-11T23:00:48.463Z,97.20
2018-10-11T23:03:20.908Z,97.30
2018-10-11T23:05:53.475Z,97.50
2018-10-11T23:08:25.952Z,97.50
2018-10-11T23:10:58.423Z,97.70
2018-10-11T23:13:30.826Z,97.60
2018-10-11T23:16:03.326Z,97.70
2018-10-11T23:18:35.797Z,97.70
2018-10-11T23:21:08.275Z,97.70
2018-10-11T23:23:41.749Z,97.60
2018-10-11T23:26:14.300Z,97.60
2018-10-11T23:28:46.740Z,97.70
2018-10-11T23:31:19.660Z,97.70
2018-10-11T23:33:52.283Z,97.80
2018-10-11T23:36:24.711Z,97.80
2018-10-11T23:38:57.161Z,97.80
2018-10-11T23:41:29.586Z,97.90
2018-10-11T23:44:02.036Z,97.90
2018-10-11T23:46:34.740Z,98.00
2018-10-11T23:49:07.155Z,98.00
2018-10-11T23:51:39.805Z,98.00
2018-10-11T23:54:12.238Z,98.00
2018-10-11T23:56:44.991Z,98.00
2018-10-11T23:59:17.397Z,98.10
